createdAt,value
2022-12-31T00:01:55.358Z,80.60
2022-12-31T00:04:22.332Z,80.80
2022-12-31T00:06:49.091Z,80.70
2022-12-31T00:09:15.820Z,80.60
2022-12-31T00:11:42.659Z,80.50
2022-12-31T00:14:09.411Z,81.60
2022-12-31T00:16:41.865Z,80.90
2022-12-31T00:19:11.037Z,80.80
2022-12-31T00:21:38.560Z,80.90
2022-12-31T00:24:06.351Z,80.60
2022-12-31T00:26:34.657Z,80.90
2022-12-31T00:29:02.786Z,81.00
2022-12-31T00:31:33.046Z,80.90
2022-12-31T00:34:00.427Z,81.00
2022-12-31T00:36:32.980Z,81.20
2022-12-31T00:39:01.174Z,81.50
2022-12-31T00:41:28.864Z,81.20
2022-12-31T00:43:56.001Z,81.10
2022-12-31T00:46:23.402Z,81.30
2022-12-31T00:48:50.450Z,81.70
2022-12-31T00:51:19.773Z,81.80
2022-12-31T00:53:46.803Z,81.70
2022-12-31T00:56:16.687Z,81.80
2022-12-31T00:58:43.710Z,81.50
2022-12-31T01:01:32.231Z,81.80
2022-12-31T01:04:05.665Z,81.70
2022-12-31T01:06:32.770Z,81.80
2022-12-31T01:09:00.025Z,81.80
2022-12-31T01:11:29.517Z,81.60
2022-12-31T01:14:00.655Z,81.40
2022-12-31T01:16:33.866Z,81.40
2022-12-31T01:19:03.356Z,81.50
2022-12-31T01:21:30.848Z,81.10
2022-12-31T01:23:58.773Z,81.20
2022-12-31T01:26:25.829Z,81.10
2022-12-31T01:28:52.695Z,81.20
2022-12-31T01:31:21.763Z,80.80
2022-12-31T01:33:48.819Z,80.40
2022-12-31T01:36:25.573Z,80.50
2022-12-31T01:38:54.687Z,80.70
2022-12-31T01:41:30.411Z,80.70
2022-12-31T01:44:02.596Z,80.40
2022-12-31T01:46:49.503Z,80.40
2022-12-31T01:49:19.784Z,80.50
2022-12-31T01:51:53.288Z,80.00
2022-12-31T01:54:22.681Z,80.20
2022-12-31T01:56:52.507Z,80.70
2022-12-31T01:59:21.317Z,80.60
2022-12-31T02:01:52.648Z,80.50
2022-12-31T02:04:22.523Z,80.00
2022-12-31T02:06:56.112Z,80.50
2022-12-31T02:09:22.980Z,80.10
2022-12-31T02:11:49.869Z,79.80
2022-12-31T02:14:32.051Z,80.10
2022-12-31T02:17:44.067Z,79.90
2022-12-31T02:20:40.965Z,81.10
2022-12-31T02:23:15.241Z,80.00
2022-12-31T02:26:27.465Z,79.90
2022-12-31T02:29:19.213Z,79.90
2022-12-31T02:32:00.296Z,79.80
2022-12-31T02:34:36.844Z,79.80
2022-12-31T02:37:06.288Z,80.10
2022-12-31T02:39:34.368Z,80.00
2022-12-31T02:42:02.570Z,79.70
2022-12-31T02:44:35.276Z,79.50
2022-12-31T02:47:08.170Z,79.50
2022-12-31T02:49:57.208Z,79.50
2022-12-31T02:52:56.721Z,79.90
2022-12-31T02:55:39.737Z,79.70
2022-12-31T02:58:57.065Z,79.50
2022-12-31T03:01:51.242Z,79.50
2022-12-31T03:04:36.043Z,79.30
2022-12-31T03:07:08.600Z,78.90
2022-12-31T03:09:36.654Z,79.10
2022-12-31T03:12:24.879Z,79.20
2022-12-31T03:14:52.100Z,79.20
2022-12-31T03:17:19.376Z,79.60
2022-12-31T03:20:04.622Z,79.50
2022-12-31T03:22:32.704Z,79.40
2022-12-31T03:25:28.156Z,79.30
2022-12-31T03:27:55.913Z,79.40
2022-12-31T03:30:23.938Z,79.50
2022-12-31T03:32:51.528Z,79.40
2022-12-31T03:35:20.414Z,79.40
2022-12-31T03:37:48.924Z,80.30
2022-12-31T03:40:17.097Z,79.60
2022-12-31T03:42:44.003Z,79.50
2022-12-31T03:45:12.345Z,79.70
2022-12-31T03:47:39.240Z,79.90
2022-12-31T03:50:08.277Z,79.70
2022-12-31T03:52:35.127Z,79.80
2022-12-31T03:55:02.381Z,79.90
2022-12-31T03:57:29.658Z,79.90
2022-12-31T03:59:56.533Z,80.00
2022-12-31T04:02:28.535Z,79.80
2022-12-31T04:04:56.250Z,79.80
2022-12-31T04:07:23.120Z,80.00
2022-12-31T04:09:50.007Z,79.90
2022-12-31T04:12:17.528Z,80.90
2022-12-31T04:14:44.255Z,80.20
2022-12-31T04:17:10.963Z,79.90
2022-12-31T04:19:37.765Z,79.90
2022-12-31T04:22:05.029Z,80.20
2022-12-31T04:24:32.148Z,79.80
2022-12-31T04:27:05.345Z,79.90
2022-12-31T04:29:34.604Z,79.90
2022-12-31T04:32:01.555Z,80.10
2022-12-31T04:34:28.419Z,79.90
2022-12-31T04:36:55.193Z,79.90
2022-12-31T04:39:22.068Z,79.70
2022-12-31T04:41:50.036Z,79.80
2022-12-31T04:44:17.279Z,80.00
2022-12-31T04:46:44.065Z,79.70
2022-12-31T04:49:11.214Z,79.60
2022-12-31T04:51:38.616Z,79.70
2022-12-31T04:54:05.829Z,79.30
2022-12-31T04:56:33.244Z,79.40
2022-12-31T04:58:59.970Z,79.50
2022-12-31T05:01:26.828Z,79.60
2022-12-31T05:03:53.785Z,79.20
2022-12-31T05:06:22.333Z,79.40
2022-12-31T05:08:50.007Z,79.10
2022-12-31T05:11:17.768Z,79.40
2022-12-31T05:13:44.657Z,79.50
2022-12-31T05:16:11.591Z,79.10
2022-12-31T05:18:38.697Z,79.50
2022-12-31T05:21:06.591Z,79.70
2022-12-31T05:23:33.586Z,79.80
2022-12-31T05:26:00.429Z,80.00
2022-12-31T05:28:27.443Z,80.50
2022-12-31T05:30:54.349Z,80.30
2022-12-31T05:33:22.940Z,80.10
2022-12-31T05:35:49.716Z,80.20
2022-12-31T05:38:16.492Z,80.10
2022-12-31T05:40:43.195Z,80.10
2022-12-31T05:43:09.923Z,80.10
2022-12-31T05:45:37.084Z,80.20
2022-12-31T05:48:03.983Z,80.50
2022-12-31T05:50:30.715Z,80.50
2022-12-31T05:53:04.035Z,80.70
2022-12-31T05:55:30.784Z,80.90
2022-12-31T05:57:57.739Z,80.80
2022-12-31T06:00:24.485Z,80.60
2022-12-31T06:02:51.252Z,80.80
2022-12-31T06:05:22.609Z,81.00
2022-12-31T06:07:52.649Z,81.00
2022-12-31T06:10:19.381Z,80.90
2022-12-31T06:12:46.087Z,80.70
2022-12-31T06:15:12.803Z,80.50
2022-12-31T06:17:39.600Z,80.90
2022-12-31T06:20:12.449Z,80.70
2022-12-31T06:22:39.961Z,80.30
2022-12-31T06:25:07.124Z,80.10
2022-12-31T06:27:33.831Z,80.40
2022-12-31T06:30:00.550Z,80.40
2022-12-31T06:32:27.423Z,80.30
2022-12-31T06:34:54.107Z,80.10
2022-12-31T06:37:20.926Z,80.10
2022-12-31T06:39:47.679Z,80.60
2022-12-31T06:42:14.391Z,80.40
2022-12-31T06:44:41.097Z,80.10
2022-12-31T06:47:07.818Z,80.30
2022-12-31T06:49:34.616Z,80.70
2022-12-31T06:52:01.596Z,80.60
2022-12-31T06:54:28.368Z,80.60
2022-12-31T06:56:55.407Z,80.80
2022-12-31T06:59:29.662Z,81.00
2022-12-31T07:02:25.446Z,81.10
2022-12-31T07:05:07.369Z,81.60
2022-12-31T07:07:55.114Z,82.00
2022-12-31T07:11:14.797Z,81.80
2022-12-31T07:14:13.443Z,82.00
2022-12-31T07:16:59.287Z,82.00
2022-12-31T07:19:57.880Z,82.50
2022-12-31T07:22:25.142Z,82.40
2022-12-31T07:24:52.214Z,82.70
2022-12-31T07:27:26.892Z,82.90
2022-12-31T07:29:59.532Z,83.00
2022-12-31T07:32:35.099Z,83.40
2022-12-31T07:35:40.152Z,83.80
2022-12-31T07:38:18.515Z,83.10
2022-12-31T07:41:33.940Z,83.40
2022-12-31T07:44:10.816Z,83.70
2022-12-31T07:46:59.444Z,83.50
2022-12-31T07:49:28.671Z,83.60
2022-12-31T07:51:55.872Z,83.20
2022-12-31T07:54:23.228Z,83.30
2022-12-31T07:56:50.530Z,83.00
2022-12-31T07:59:27.885Z,83.20
2022-12-31T08:02:04.595Z,83.50
2022-12-31T08:05:03.495Z,83.20
2022-12-31T08:07:37.081Z,83.60
2022-12-31T08:10:39.949Z,83.10
2022-12-31T08:13:11.302Z,83.60
2022-12-31T08:15:39.761Z,83.00
2022-12-31T08:18:07.795Z,82.80
2022-12-31T08:20:44.027Z,82.80
2022-12-31T08:23:22.809Z,82.70
2022-12-31T08:26:34.776Z,82.90
2022-12-31T08:29:35.497Z,82.90
2022-12-31T08:32:23.417Z,83.00
2022-12-31T08:34:53.190Z,82.50
2022-12-31T08:37:37.408Z,82.70
2022-12-31T08:40:20.448Z,83.10
2022-12-31T08:43:05.587Z,82.60
2022-12-31T08:45:42.990Z,82.50
2022-12-31T08:48:34.847Z,82.80
2022-12-31T08:51:02.033Z,83.20
2022-12-31T08:53:29.166Z,83.00
2022-12-31T08:56:07.978Z,82.70
2022-12-31T08:58:46.327Z,82.40
2022-12-31T09:01:15.096Z,82.60
2022-12-31T09:04:06.663Z,82.70
2022-12-31T09:06:43.894Z,82.90
2022-12-31T09:09:18.108Z,82.70
2022-12-31T09:12:09.121Z,82.50
2022-12-31T09:14:41.846Z,82.30
2022-12-31T09:17:35.705Z,82.40
2022-12-31T09:20:04.227Z,82.90
2022-12-31T09:22:31.312Z,82.40
2022-12-31T09:24:58.420Z,82.20
2022-12-31T09:27:30.263Z,82.50
2022-12-31T09:30:07.640Z,82.50
2022-12-31T09:32:50.315Z,82.30
2022-12-31T09:35:46.164Z,82.70
2022-12-31T09:38:40.448Z,82.70
2022-12-31T09:41:35.965Z,82.60
2022-12-31T09:44:32.264Z,82.00
2022-12-31T09:47:20.632Z,81.90
2022-12-31T09:49:53.291Z,81.90
2022-12-31T09:52:56.431Z,82.10
2022-12-31T09:55:36.879Z,81.80
2022-12-31T09:58:42.868Z,81.50
2022-12-31T10:01:31.059Z,81.50
2022-12-31T10:04:29.065Z,81.30
2022-12-31T10:07:21.681Z,81.50
2022-12-31T10:10:16.422Z,81.30
2022-12-31T10:12:58.545Z,81.80
2022-12-31T10:15:52.628Z,82.00
2022-12-31T10:18:41.198Z,81.70
2022-12-31T10:21:23.317Z,81.10
2022-12-31T10:24:05.192Z,81.30
2022-12-31T10:26:56.080Z,81.50
2022-12-31T10:29:25.204Z,81.70
2022-12-31T10:32:20.032Z,81.60
2022-12-31T10:34:54.717Z,82.10
2022-12-31T10:37:21.540Z,81.50
2022-12-31T10:40:09.615Z,81.60
2022-12-31T10:42:52.160Z,81.60
2022-12-31T10:45:24.803Z,81.40
2022-12-31T10:48:19.355Z,81.50
2022-12-31T10:51:24.756Z,81.40
2022-12-31T10:54:00.548Z,81.30
2022-12-31T10:56:53.948Z,80.90
2022-12-31T10:59:26.791Z,81.40
2022-12-31T11:02:05.620Z,80.80
2022-12-31T11:05:08.473Z,80.70
2022-12-31T11:08:05.215Z,80.40
2022-12-31T11:10:40.876Z,80.60
2022-12-31T11:13:25.733Z,80.90
2022-12-31T11:15:52.583Z,81.70
2022-12-31T11:18:46.904Z,81.70
2022-12-31T11:21:24.548Z,82.20
2022-12-31T11:24:17.485Z,82.10
2022-12-31T11:26:54.208Z,82.70
2022-12-31T11:29:33.615Z,82.80
2022-12-31T11:32:35.437Z,83.10
2022-12-31T11:35:20.108Z,83.00
2022-12-31T11:38:05.268Z,82.50
2022-12-31T11:41:25.516Z,82.60
2022-12-31T11:44:30.717Z,82.70
2022-12-31T11:47:21.941Z,83.00
2022-12-31T11:50:00.217Z,82.80
2022-12-31T11:52:46.868Z,82.60
2022-12-31T11:55:38.251Z,82.80
2022-12-31T11:58:14.048Z,82.90
2022-12-31T12:00:45.945Z,82.80
2022-12-31T12:03:13.163Z,83.10
2022-12-31T12:05:40.592Z,82.90
2022-12-31T12:08:07.556Z,82.80
2022-12-31T12:10:58.578Z,82.90
2022-12-31T12:13:28.024Z,83.00
2022-12-31T12:15:58.728Z,82.30
2022-12-31T12:18:40.950Z,81.80
2022-12-31T12:21:14.207Z,81.90
2022-12-31T12:23:42.567Z,82.00
2022-12-31T12:26:27.268Z,81.70
2022-12-31T12:28:54.219Z,81.90
2022-12-31T12:31:23.892Z,81.70
2022-12-31T12:33:52.189Z,81.40
2022-12-31T12:36:21.628Z,81.40
2022-12-31T12:39:05.395Z,81.50
2022-12-31T12:41:32.867Z,81.70
2022-12-31T12:44:08.788Z,81.10
2022-12-31T12:46:47.947Z,81.50
2022-12-31T12:49:21.457Z,81.40
2022-12-31T12:52:08.957Z,81.50
2022-12-31T12:54:44.655Z,81.20
2022-12-31T12:57:21.493Z,81.00
2022-12-31T13:00:12.936Z,81.00
2022-12-31T13:03:12.963Z,81.00
2022-12-31T13:06:06.754Z,81.00
2022-12-31T13:08:33.508Z,80.90
2022-12-31T13:11:25.886Z,80.80
2022-12-31T13:14:13.846Z,80.80
2022-12-31T13:16:54.049Z,80.60
2022-12-31T13:19:52.154Z,80.60
2022-12-31T13:22:42.787Z,80.70
2022-12-31T13:25:45.991Z,81.00
2022-12-31T13:28:16.566Z,80.80
2022-12-31T13:30:46.795Z,80.70
2022-12-31T13:33:25.624Z,80.70
2022-12-31T13:35:54.032Z,81.00
2022-12-31T13:38:27.922Z,80.60
2022-12-31T13:40:57.679Z,80.80
2022-12-31T13:43:51.123Z,80.70
2022-12-31T13:46:25.505Z,80.90
2022-12-31T13:49:15.082Z,80.50
2022-12-31T13:51:46.150Z,80.80
2022-12-31T13:54:15.945Z,80.60
2022-12-31T13:56:45.435Z,80.50
2022-12-31T13:59:21.259Z,80.50
2022-12-31T14:02:06.073Z,80.80
2022-12-31T14:04:38.231Z,81.00
2022-12-31T14:07:18.269Z,81.10
2022-12-31T14:09:46.474Z,80.80
2022-12-31T14:12:23.038Z,80.70
2022-12-31T14:14:59.089Z,80.60
2022-12-31T14:17:40.942Z,80.30
2022-12-31T14:20:27.893Z,80.60
2022-12-31T14:23:13.706Z,80.40
2022-12-31T14:26:04.860Z,80.20
2022-12-31T14:28:46.434Z,80.60
2022-12-31T14:31:49.501Z,80.40
2022-12-31T14:34:40.950Z,80.40
2022-12-31T14:37:12.884Z,80.50
2022-12-31T14:40:17.711Z,81.20
2022-12-31T14:43:05.633Z,81.40
2022-12-31T14:46:09.818Z,81.00
2022-12-31T14:49:01.490Z,81.40
2022-12-31T14:51:34.645Z,81.00
2022-12-31T14:54:01.778Z,80.50
2022-12-31T14:56:51.412Z,80.10
2022-12-31T14:59:35.631Z,80.10
2022-12-31T15:02:24.140Z,80.10
2022-12-31T15:04:51.014Z,79.60
2022-12-31T15:07:30.613Z,79.50
2022-12-31T15:10:06.756Z,79.30
2022-12-31T15:13:00.039Z,79.00
2022-12-31T15:15:51.730Z,78.80
2022-12-31T15:19:06.872Z,79.10
2022-12-31T15:21:57.743Z,78.70
2022-12-31T15:24:27.629Z,78.40
2022-12-31T15:26:56.085Z,78.70
2022-12-31T15:29:27.783Z,78.70
2022-12-31T15:31:57.590Z,78.40
2022-12-31T15:34:31.013Z,78.50
2022-12-31T15:37:00.968Z,78.40
2022-12-31T15:39:39.314Z,78.00
2022-12-31T15:42:39.925Z,78.30
2022-12-31T15:45:17.164Z,78.70
2022-12-31T15:47:48.709Z,78.00
2022-12-31T15:50:19.965Z,77.70
2022-12-31T15:52:56.561Z,77.40
2022-12-31T15:55:34.419Z,77.40
2022-12-31T15:58:06.317Z,77.10
2022-12-31T16:01:06.575Z,77.20
2022-12-31T16:03:33.958Z,77.40
2022-12-31T16:06:10.892Z,76.90
2022-12-31T16:08:38.415Z,77.00
2022-12-31T16:11:08.664Z,76.90
2022-12-31T16:13:40.307Z,76.70
2022-12-31T16:16:28.601Z,76.50
2022-12-31T16:18:56.784Z,77.00
2022-12-31T16:21:23.651Z,76.20
2022-12-31T16:23:53.259Z,76.10
2022-12-31T16:26:20.488Z,76.00
2022-12-31T16:28:48.813Z,76.00
2022-12-31T16:31:19.832Z,75.70
2022-12-31T16:33:47.655Z,75.30
2022-12-31T16:36:23.066Z,75.50
2022-12-31T16:38:50.032Z,75.60
2022-12-31T16:41:19.375Z,75.00
2022-12-31T16:43:50.773Z,74.50
2022-12-31T16:46:31.174Z,74.60
2022-12-31T16:49:13.399Z,75.10
2022-12-31T16:51:40.554Z,74.60
2022-12-31T16:54:27.950Z,74.00
2022-12-31T16:56:56.002Z,73.90
2022-12-31T16:59:44.927Z,73.40
2022-12-31T17:02:27.431Z,73.40
2022-12-31T17:04:56.480Z,73.20
2022-12-31T17:07:32.324Z,73.00
2022-12-31T17:10:07.872Z,72.90
2022-12-31T17:13:01.014Z,72.50
2022-12-31T17:15:40.301Z,72.60
2022-12-31T17:18:07.849Z,72.80
2022-12-31T17:20:35.093Z,72.80
2022-12-31T17:23:06.712Z,72.60
2022-12-31T17:25:36.558Z,72.30
2022-12-31T17:28:07.630Z,72.20
2022-12-31T17:30:35.066Z,72.30
2022-12-31T17:33:06.131Z,72.00
2022-12-31T17:35:36.647Z,71.90
2022-12-31T17:38:21.638Z,71.90
2022-12-31T17:41:05.341Z,72.30
2022-12-31T17:43:37.807Z,72.00
2022-12-31T17:46:31.272Z,71.70
2022-12-31T17:49:01.614Z,71.80
2022-12-31T17:51:28.608Z,71.30
2022-12-31T17:53:55.487Z,71.10
2022-12-31T17:56:24.836Z,71.30
2022-12-31T17:58:53.598Z,71.40
2022-12-31T18:01:24.082Z,71.30
2022-12-31T18:03:51.228Z,71.20
2022-12-31T18:06:19.623Z,71.00
2022-12-31T18:08:46.960Z,70.90
2022-12-31T18:11:20.176Z,70.60
2022-12-31T18:13:47.687Z,70.70
2022-12-31T18:16:15.363Z,71.00
2022-12-31T18:18:43.676Z,70.30
2022-12-31T18:21:25.293Z,70.10
2022-12-31T18:26:24.626Z,70.20
2022-12-31T18:28:52.138Z,70.50
2022-12-31T18:31:30.233Z,70.00
2022-12-31T18:33:58.774Z,69.50
2022-12-31T18:36:26.885Z,69.30
2022-12-31T18:38:53.907Z,67.60
2022-12-31T18:41:23.145Z,68.20
2022-12-31T18:43:50.533Z,68.60
2022-12-31T18:46:21.689Z,69.00
2022-12-31T18:48:48.999Z,68.10
2022-12-31T18:51:31.411Z,68.30
2022-12-31T18:54:00.349Z,68.50
2022-12-31T18:56:27.854Z,68.10
2022-12-31T18:58:54.822Z,68.10
2022-12-31T19:01:29.469Z,67.80
2022-12-31T19:04:01.444Z,68.10
2022-12-31T19:06:29.431Z,68.20
2022-12-31T19:08:56.278Z,67.60
2022-12-31T19:11:23.807Z,66.90
2022-12-31T19:13:51.070Z,66.90
2022-12-31T19:16:20.903Z,67.50
2022-12-31T19:18:48.983Z,67.70
2022-12-31T19:21:22.481Z,65.90
2022-12-31T19:23:50.499Z,66.00
2022-12-31T19:26:19.931Z,65.40
2022-12-31T19:28:47.815Z,66.20
2022-12-31T19:31:15.539Z,65.30
2022-12-31T19:33:43.334Z,65.90
2022-12-31T19:36:18.337Z,65.90
2022-12-31T19:38:45.532Z,66.20
2022-12-31T19:41:18.497Z,66.00
2022-12-31T19:43:46.668Z,66.40
2022-12-31T19:46:18.469Z,66.20
2022-12-31T19:48:46.381Z,65.70
2022-12-31T19:51:17.585Z,64.70
2022-12-31T19:53:45.043Z,65.70
2022-12-31T19:56:20.502Z,65.10
2022-12-31T19:58:47.286Z,65.70
2022-12-31T20:01:20.675Z,66.20
2022-12-31T20:03:47.863Z,66.00
2022-12-31T20:06:15.455Z,65.80
2022-12-31T20:08:46.499Z,65.30
2022-12-31T20:11:20.251Z,65.80
2022-12-31T20:13:48.774Z,65.30
2022-12-31T20:16:18.265Z,64.60
2022-12-31T20:18:46.662Z,65.10
2022-12-31T20:21:19.779Z,64.20
2022-12-31T20:23:48.179Z,64.00
2022-12-31T20:26:15.144Z,63.70
2022-12-31T20:28:42.126Z,64.00
2022-12-31T20:31:18.163Z,64.20
2022-12-31T20:33:45.240Z,63.70
2022-12-31T20:36:14.637Z,64.70
2022-12-31T20:38:41.490Z,62.90
2022-12-31T20:41:15.964Z,63.60
2022-12-31T20:43:43.665Z,63.50
2022-12-31T20:46:15.645Z,63.50
2022-12-31T20:48:43.759Z,62.90
2022-12-31T20:51:10.822Z,63.30
2022-12-31T20:53:37.587Z,62.50
2022-12-31T20:56:08.768Z,62.50
2022-12-31T20:58:35.916Z,63.20
2022-12-31T21:01:06.169Z,62.30
2022-12-31T21:04:04.123Z,61.80
2022-12-31T21:06:22.414Z,62.00
2022-12-31T21:08:49.246Z,62.10
2022-12-31T21:11:34.677Z,62.50
2022-12-31T21:14:01.917Z,62.30
2022-12-31T21:16:29.106Z,61.80
2022-12-31T21:18:56.206Z,61.40
2022-12-31T21:21:23.644Z,61.40
2022-12-31T21:23:50.504Z,61.40
2022-12-31T21:26:17.383Z,62.00
2022-12-31T21:28:44.297Z,61.60
2022-12-31T21:31:12.957Z,60.70
2022-12-31T21:33:39.929Z,61.40
2022-12-31T21:36:06.914Z,60.90
2022-12-31T21:38:36.784Z,61.20
2022-12-31T21:41:05.157Z,60.80
2022-12-31T21:43:32.049Z,61.80
2022-12-31T21:46:04.854Z,61.50
2022-12-31T21:48:32.086Z,61.50
2022-12-31T21:51:08.702Z,61.30
2022-12-31T21:53:37.349Z,61.60
2022-12-31T21:56:08.263Z,61.10
2022-12-31T21:58:47.481Z,60.00
2022-12-31T22:01:40.465Z,60.40
2022-12-31T22:04:28.260Z,59.70
2022-12-31T22:06:54.836Z,60.20
2022-12-31T22:09:21.727Z,59.70
2022-12-31T22:11:48.876Z,59.90
2022-12-31T22:14:15.623Z,59.60
2022-12-31T22:16:42.404Z,59.40
2022-12-31T22:19:11.373Z,58.30
2022-12-31T22:21:38.343Z,58.80
2022-12-31T22:24:05.469Z,58.80
2022-12-31T22:26:32.304Z,58.60
2022-12-31T22:28:59.365Z,58.00
2022-12-31T22:31:29.976Z,58.70
2022-12-31T22:33:58.466Z,59.10
2022-12-31T22:36:25.910Z,58.30
2022-12-31T22:38:57.234Z,59.20
2022-12-31T22:41:26.161Z,58.80
2022-12-31T22:44:02.617Z,57.90
2022-12-31T22:46:31.100Z,58.20
2022-12-31T22:49:00.789Z,57.80
2022-12-31T22:51:55.664Z,58.40
2022-12-31T22:54:18.288Z,58.20
2022-12-31T22:56:45.067Z,58.20
2022-12-31T22:59:11.907Z,58.80
2022-12-31T23:01:38.795Z,57.20
2022-12-31T23:04:05.951Z,57.60
2022-12-31T23:06:33.034Z,57.20
2022-12-31T23:09:18.486Z,57.50
2022-12-31T23:11:45.423Z,57.70
2022-12-31T23:14:35.747Z,58.30
2022-12-31T23:17:29.653Z,58.10
2022-12-31T23:20:17.879Z,58.00
2022-12-31T23:23:03.805Z,58.10
2022-12-31T23:25:39.208Z,57.50
2022-12-31T23:28:07.715Z,57.60
2022-12-31T23:30:37.297Z,57.80
2022-12-31T23:33:04.232Z,57.80
2022-12-31T23:35:31.231Z,57.50
2022-12-31T23:37:58.173Z,57.60
2022-12-31T23:40:34.149Z,57.40
2022-12-31T23:43:06.473Z,57.40
2022-12-31T23:45:37.676Z,57.50
2022-12-31T23:48:04.994Z,57.10
2022-12-31T23:50:31.814Z,57.20
2022-12-31T23:52:58.754Z,57.10
2022-12-31T23:55:25.606Z,57.00
2022-12-31T23:57:52.377Z,57.30
